sensor_id;sensor_type;location;lat;lon;timestamp;temperature;humidity
975;DHT22;6115;49.296;10.602;2023-04-03T05:35:21;0.80;77.50
975;DHT22;6115;49.296;10.602;2023-04-03T05:40:22;1.10;78.00
975;DHT22;6115;49.296;10.602;2023-04-03T05:45:22;1.50;76.60
975;DHT22;6115;49.296;10.602;2023-04-03T05:50:23;1.70;75.50
975;DHT22;6115;49.296;10.602;2023-04-03T05:55:23;1.90;74.20
975;DHT22;6115;49.296;10.602;2023-04-03T12:47:49;11.20;31.90
975;DHT22;6115;49.296;10.602;2023-04-03T12:53:16;10.20;31.00
975;DHT22;6115;49.296;10.602;2023-04-03T12:58:24;10.40;30.00
975;DHT22;6115;49.296;10.602;2023-04-03T13:03:26;10.10;32.20
975;DHT22;6115;49.296;10.602;2023-04-03T13:08:27;9.60;33.20
975;DHT22;6115;49.296;10.602;2023-04-03T13:13:29;10.70;32.70
975;DHT22;6115;49.296;10.602;2023-04-03T13:18:32;10.50;30.40
975;DHT22;6115;49.296;10.602;2023-04-03T13:23:36;9.80;31.70
975;DHT22;6115;49.296;10.602;2023-04-03T13:28:40;10.50;32.50
975;DHT22;6115;49.296;10.602;2023-04-03T13:33:55;11.70;30.00
975;DHT22;6115;49.296;10.602;2023-04-03T13:39:30;11.90;28.60
975;DHT22;6115;49.296;10.602;2023-04-03T13:44:34;12.00;29.40
975;DHT22;6115;49.296;10.602;2023-04-03T13:50:20;11.00;29.50
975;DHT22;6115;49.296;10.602;2023-04-03T14:01:18;10.60;31.20
975;DHT22;6115;49.296;10.602;2023-04-03T14:06:20;10.30;29.40
975;DHT22;6115;49.296;10.602;2023-04-03T14:11:26;10.00;30.40
975;DHT22;6115;49.296;10.602;2023-04-03T14:16:31;10.30;29.70
975;DHT22;6115;49.296;10.602;2023-04-03T14:21:32;11.40;29.40
975;DHT22;6115;49.296;10.602;2023-04-03T14:26:33;11.20;28.80
975;DHT22;6115;49.296;10.602;2023-04-03T14:31:34;10.10;29.10
975;DHT22;6115;49.296;10.602;2023-04-03T14:36:35;9.60;31.40
975;DHT22;6115;49.296;10.602;2023-04-03T14:41:35;10.80;30.90
975;DHT22;6115;49.296;10.602;2023-04-03T14:46:38;11.80;28.20
975;DHT22;6115;49.296;10.602;2023-04-03T14:51:40;11.50;28.90
975;DHT22;6115;49.296;10.602;2023-04-03T14:56:40;10.50;28.90
975;DHT22;6115;49.296;10.602;2023-04-03T15:01:42;10.20;29.80
975;DHT22;6115;49.296;10.602;2023-04-03T15:06:42;10.20;30.20
975;DHT22;6115;49.296;10.602;2023-04-03T15:11:43;10.60;28.60
975;DHT22;6115;49.296;10.602;2023-04-03T15:16:44;10.30;30.00
975;DHT22;6115;49.296;10.602;2023-04-03T15:21:44;10.00;29.80
975;DHT22;6115;49.296;10.602;2023-04-03T15:26:45;10.00;29.60
975;DHT22;6115;49.296;10.602;2023-04-03T15:31:46;10.30;29.50
975;DHT22;6115;49.296;10.602;2023-04-03T15:36:50;10.50;29.60
975;DHT22;6115;49.296;10.602;2023-04-03T15:41:52;10.70;28.50
975;DHT22;6115;49.296;10.602;2023-04-03T15:46:54;11.00;29.10
975;DHT22;6115;49.296;10.602;2023-04-03T15:51:54;10.80;29.30
975;DHT22;6115;49.296;10.602;2023-04-03T15:56:55;10.60;28.90
975;DHT22;6115;49.296;10.602;2023-04-03T16:01:56;10.30;29.20
975;DHT22;6115;49.296;10.602;2023-04-03T16:06:57;9.90;29.90
975;DHT22;6115;49.296;10.602;2023-04-03T16:11:57;9.90;30.50
975;DHT22;6115;49.296;10.602;2023-04-03T16:16:59;10.30;28.50
975;DHT22;6115;49.296;10.602;2023-04-03T16:22:00;10.40;29.60
975;DHT22;6115;49.296;10.602;2023-04-03T16:27:01;10.50;28.80
975;DHT22;6115;49.296;10.602;2023-04-03T16:32:02;10.00;29.20
975;DHT22;6115;49.296;10.602;2023-04-03T16:37:02;9.80;29.80
975;DHT22;6115;49.296;10.602;2023-04-03T16:42:03;9.40;30.40
975;DHT22;6115;49.296;10.602;2023-04-03T16:47:04;9.00;30.80
975;DHT22;6115;49.296;10.602;2023-04-03T16:52:05;8.40;31.40
975;DHT22;6115;49.296;10.602;2023-04-03T16:57:06;8.10;31.60
975;DHT22;6115;49.296;10.602;2023-04-03T17:02:06;7.70;32.50
975;DHT22;6115;49.296;10.602;2023-04-03T17:07:07;7.50;34.00
975;DHT22;6115;49.296;10.602;2023-04-03T17:12:12;7.20;33.90
975;DHT22;6115;49.296;10.602;2023-04-03T17:17:21;6.70;34.50
975;DHT22;6115;49.296;10.602;2023-04-03T17:22:22;6.30;34.70
975;DHT22;6115;49.296;10.602;2023-04-03T17:27:23;6.00;35.70
975;DHT22;6115;49.296;10.602;2023-04-03T17:32:23;5.70;36.60
975;DHT22;6115;49.296;10.602;2023-04-03T17:37:25;5.40;36.50
975;DHT22;6115;49.296;10.602;2023-04-03T17:42:26;5.10;37.00
975;DHT22;6115;49.296;10.602;2023-04-03T17:47:26;5.00;37.60
975;DHT22;6115;49.296;10.602;2023-04-03T17:52:27;4.80;37.90
975;DHT22;6115;49.296;10.602;2023-04-03T17:57:27;4.70;38.20
975;DHT22;6115;49.296;10.602;2023-04-03T18:02:30;4.50;38.60
975;DHT22;6115;49.296;10.602;2023-04-03T18:07:31;4.30;38.70
975;DHT22;6115;49.296;10.602;2023-04-03T18:12:32;4.20;38.70
975;DHT22;6115;49.296;10.602;2023-04-03T18:17:32;4.00;39.20
975;DHT22;6115;49.296;10.602;2023-04-03T18:22:41;3.90;40.00
975;DHT22;6115;49.296;10.602;2023-04-03T18:27:43;3.70;39.70
975;DHT22;6115;49.296;10.602;2023-04-03T18:32:44;3.60;40.20
975;DHT22;6115;49.296;10.602;2023-04-03T18:37:44;3.40;40.80
975;DHT22;6115;49.296;10.602;2023-04-03T18:42:45;3.30;40.70
975;DHT22;6115;49.296;10.602;2023-04-03T18:47:45;3.20;41.10
975;DHT22;6115;49.296;10.602;2023-04-03T18:52:46;3.10;41.40
975;DHT22;6115;49.296;10.602;2023-04-03T18:57:49;2.90;41.30
975;DHT22;6115;49.296;10.602;2023-04-03T19:02:50;2.80;41.20
975;DHT22;6115;49.296;10.602;2023-04-03T19:07:52;2.70;41.90
975;DHT22;6115;49.296;10.602;2023-04-03T19:12:53;2.60;41.90
975;DHT22;6115;49.296;10.602;2023-04-03T19:17:54;2.50;42.40
975;DHT22;6115;49.296;10.602;2023-04-03T19:22:56;2.40;42.60
975;DHT22;6115;49.296;10.602;2023-04-03T19:27:56;2.20;42.70
975;DHT22;6115;49.296;10.602;2023-04-03T19:32:57;2.10;42.70
975;DHT22;6115;49.296;10.602;2023-04-03T19:37:57;2.00;42.80
975;DHT22;6115;49.296;10.602;2023-04-03T19:42:58;2.00;42.80
975;DHT22;6115;49.296;10.602;2023-04-03T19:47:58;1.90;43.10
975;DHT22;6115;49.296;10.602;2023-04-03T19:53:00;1.80;43.40
975;DHT22;6115;49.296;10.602;2023-04-03T19:58:02;1.70;43.40
975;DHT22;6115;49.296;10.602;2023-04-03T20:03:02;1.70;43.60
975;DHT22;6115;49.296;10.602;2023-04-03T20:08:03;1.60;43.70
975;DHT22;6115;49.296;10.602;2023-04-03T20:13:04;1.60;44.20
975;DHT22;6115;49.296;10.602;2023-04-03T20:18:10;1.40;44.50
975;DHT22;6115;49.296;10.602;2023-04-03T20:23:11;1.30;44.50
975;DHT22;6115;49.296;10.602;2023-04-03T20:28:14;1.30;44.50
975;DHT22;6115;49.296;10.602;2023-04-03T20:33:15;1.30;44.50
975;DHT22;6115;49.296;10.602;2023-04-03T20:38:16;1.20;44.70
975;DHT22;6115;49.296;10.602;2023-04-03T20:43:17;1.10;45.30
975;DHT22;6115;49.296;10.602;2023-04-03T20:48:18;0.90;45.50
975;DHT22;6115;49.296;10.602;2023-04-03T20:53:19;0.90;46.00
975;DHT22;6115;49.296;10.602;2023-04-03T20:58:20;0.80;45.90
975;DHT22;6115;49.296;10.602;2023-04-03T21:03:21;0.70;46.10
975;DHT22;6115;49.296;10.602;2023-04-03T21:19:38;0.50;46.70
975;DHT22;6115;49.296;10.602;2023-04-03T21:24:45;0.50;46.90
975;DHT22;6115;49.296;10.602;2023-04-03T21:29:47;0.40;47.30
975;DHT22;6115;49.296;10.602;2023-04-03T21:34:47;0.40;47.40
975;DHT22;6115;49.296;10.602;2023-04-03T21:39:48;0.30;47.70
975;DHT22;6115;49.296;10.602;2023-04-03T21:44:49;0.30;47.70
975;DHT22;6115;49.296;10.602;2023-04-03T21:49:49;0.20;48.00
975;DHT22;6115;49.296;10.602;2023-04-03T21:54:50;0.10;47.90
975;DHT22;6115;49.296;10.602;2023-04-03T21:59:50;0.00;47.90
975;DHT22;6115;49.296;10.602;2023-04-03T22:04:51;0.00;48.00
975;DHT22;6115;49.296;10.602;2023-04-03T22:09:52;0.10;47.90
975;DHT22;6115;49.296;10.602;2023-04-03T22:14:52;0.00;48.30
975;DHT22;6115;49.296;10.602;2023-04-03T22:19:53;-0.10;48.50
975;DHT22;6115;49.296;10.602;2023-04-03T22:24:53;-0.20;48.80
975;DHT22;6115;49.296;10.602;2023-04-03T22:29:54;-0.20;48.90
975;DHT22;6115;49.296;10.602;2023-04-03T22:34:55;-0.30;49.10
975;DHT22;6115;49.296;10.602;2023-04-03T22:39:56;-0.40;49.30
975;DHT22;6115;49.296;10.602;2023-04-03T22:44:57;-0.40;49.50
975;DHT22;6115;49.296;10.602;2023-04-03T22:49:58;-0.30;49.40
975;DHT22;6115;49.296;10.602;2023-04-03T22:54:59;-0.40;49.40
975;DHT22;6115;49.296;10.602;2023-04-03T22:59:59;-0.40;49.30
975;DHT22;6115;49.296;10.602;2023-04-03T23:05:00;-0.50;49.50
975;DHT22;6115;49.296;10.602;2023-04-03T23:10:01;-0.50;49.50
975;DHT22;6115;49.296;10.602;2023-04-03T23:15:01;-0.50;49.60
975;DHT22;6115;49.296;10.602;2023-04-03T23:20:02;-0.50;49.50
975;DHT22;6115;49.296;10.602;2023-04-03T23:25:03;-0.60;49.90
975;DHT22;6115;49.296;10.602;2023-04-03T23:30:04;-0.60;50.10
975;DHT22;6115;49.296;10.602;2023-04-03T23:35:05;-0.70;50.20
975;DHT22;6115;49.296;10.602;2023-04-03T23:40:06;-0.70;50.30
975;DHT22;6115;49.296;10.602;2023-04-03T23:45:07;-0.70;50.50
975;DHT22;6115;49.296;10.602;2023-04-03T23:50:09;-0.80;50.40
975;DHT22;6115;49.296;10.602;2023-04-03T23:55:09;-0.80;50.70
